sensor_id;sensor_type;location;lat;lon;timestamp;P1;durP1;ratioP1;P2;durP2;ratioP2
35245;SDS011;21379;50.962;6.960;2022-09-25T00:01:29;25.58;;;12.63;;
35245;SDS011;21379;50.962;6.960;2022-09-25T00:03:58;27.15;;;13.63;;
35245;SDS011;21379;50.962;6.960;2022-09-25T00:06:25;26.83;;;12.95;;
35245;SDS011;21379;50.962;6.960;2022-09-25T00:08:53;26.33;;;13.25;;
35245;SDS011;21379;50.962;6.960;2022-09-25T00:11:21;30.90;;;13.70;;
35245;SDS011;21379;50.962;6.960;2022-09-25T00:13:49;32.85;;;14.30;;
35245;SDS011;21379;50.962;6.960;2022-09-25T00:16:17;28.20;;;14.00;;
35245;SDS011;21379;50.962;6.960;2022-09-25T00:18:46;34.28;;;13.77;;
35245;SDS011;21379;50.962;6.960;2022-09-25T00:21:32;32.60;;;14.27;;
35245;SDS011;21379;50.962;6.960;2022-09-25T00:24:00;32.80;;;14.25;;
35245;SDS011;21379;50.962;6.960;2022-09-25T00:26:30;24.83;;;12.48;;
35245;SDS011;21379;50.962;6.960;2022-09-25T00:28:58;29.25;;;14.07;;
35245;SDS011;21379;50.962;6.960;2022-09-25T00:31:26;34.05;;;14.52;;
35245;SDS011;21379;50.962;6.960;2022-09-25T00:33:55;30.48;;;14.63;;
35245;SDS011;21379;50.962;6.960;2022-09-25T00:36:24;27.05;;;13.25;;
35245;SDS011;21379;50.962;6.960;2022-09-25T00:38:52;32.63;;;14.35;;
35245;SDS011;21379;50.962;6.960;2022-09-25T00:41:20;33.42;;;13.43;;
35245;SDS011;21379;50.962;6.960;2022-09-25T00:43:50;27.73;;;13.05;;
35245;SDS011;21379;50.962;6.960;2022-09-25T00:46:21;29.55;;;14.10;;
35245;SDS011;21379;50.962;6.960;2022-09-25T00:48:52;29.05;;;13.48;;
35245;SDS011;21379;50.962;6.960;2022-09-25T00:51:24;28.90;;;14.75;;
35245;SDS011;21379;50.962;6.960;2022-09-25T00:53:57;29.42;;;14.00;;
35245;SDS011;21379;50.962;6.960;2022-09-25T00:56:26;31.35;;;14.48;;
35245;SDS011;21379;50.962;6.960;2022-09-25T00:58:57;30.05;;;14.45;;
35245;SDS011;21379;50.962;6.960;2022-09-25T01:01:24;32.13;;;15.00;;
35245;SDS011;21379;50.962;6.960;2022-09-25T01:03:51;30.83;;;13.77;;
35245;SDS011;21379;50.962;6.960;2022-09-25T01:06:20;33.72;;;15.32;;
35245;SDS011;21379;50.962;6.960;2022-09-25T01:08:48;29.98;;;15.52;;
35245;SDS011;21379;50.962;6.960;2022-09-25T01:11:16;33.85;;;16.42;;
35245;SDS011;21379;50.962;6.960;2022-09-25T01:13:43;34.78;;;14.93;;
35245;SDS011;21379;50.962;6.960;2022-09-25T01:16:12;35.42;;;16.63;;
35245;SDS011;21379;50.962;6.960;2022-09-25T01:18:47;29.23;;;13.85;;
35245;SDS011;21379;50.962;6.960;2022-09-25T01:21:26;34.10;;;15.48;;
35245;SDS011;21379;50.962;6.960;2022-09-25T01:29:58;37.38;;;17.33;;
35245;SDS011;21379;50.962;6.960;2022-09-25T01:32:33;30.55;;;15.45;;
35245;SDS011;21379;50.962;6.960;2022-09-25T01:35:09;37.53;;;17.05;;
35245;SDS011;21379;50.962;6.960;2022-09-25T01:37:41;37.35;;;16.30;;
35245;SDS011;21379;50.962;6.960;2022-09-25T01:40:12;32.75;;;15.50;;
35245;SDS011;21379;50.962;6.960;2022-09-25T01:42:44;38.42;;;17.42;;
35245;SDS011;21379;50.962;6.960;2022-09-25T01:45:17;39.10;;;17.20;;
35245;SDS011;21379;50.962;6.960;2022-09-25T01:47:49;36.15;;;15.93;;
35245;SDS011;21379;50.962;6.960;2022-09-25T01:50:18;37.10;;;16.63;;
35245;SDS011;21379;50.962;6.960;2022-09-25T01:52:52;38.60;;;17.73;;
35245;SDS011;21379;50.962;6.960;2022-09-25T01:55:23;41.67;;;17.55;;
35245;SDS011;21379;50.962;6.960;2022-09-25T01:57:56;38.42;;;16.70;;
35245;SDS011;21379;50.962;6.960;2022-09-25T02:00:35;29.70;;;15.18;;
35245;SDS011;21379;50.962;6.960;2022-09-25T02:03:07;34.25;;;16.77;;
35245;SDS011;21379;50.962;6.960;2022-09-25T02:05:38;33.67;;;15.77;;
35245;SDS011;21379;50.962;6.960;2022-09-25T02:08:11;44.22;;;16.60;;
35245;SDS011;21379;50.962;6.960;2022-09-25T02:10:43;34.03;;;15.18;;
35245;SDS011;21379;50.962;6.960;2022-09-25T02:13:15;39.08;;;15.65;;
35245;SDS011;21379;50.962;6.960;2022-09-25T02:15:45;39.03;;;16.85;;
35245;SDS011;21379;50.962;6.960;2022-09-25T02:18:16;37.95;;;17.10;;
35245;SDS011;21379;50.962;6.960;2022-09-25T02:21:10;37.35;;;16.05;;
35245;SDS011;21379;50.962;6.960;2022-09-25T02:23:43;36.00;;;17.35;;
35245;SDS011;21379;50.962;6.960;2022-09-25T02:26:15;32.05;;;15.35;;
35245;SDS011;21379;50.962;6.960;2022-09-25T02:28:47;32.70;;;15.30;;
35245;SDS011;21379;50.962;6.960;2022-09-25T02:31:19;34.05;;;14.60;;
35245;SDS011;21379;50.962;6.960;2022-09-25T02:33:48;36.38;;;13.50;;
35245;SDS011;21379;50.962;6.960;2022-09-25T02:36:16;31.75;;;15.30;;
35245;SDS011;21379;50.962;6.960;2022-09-25T02:38:44;37.15;;;15.25;;
35245;SDS011;21379;50.962;6.960;2022-09-25T02:41:16;31.48;;;13.68;;
35245;SDS011;21379;50.962;6.960;2022-09-25T02:43:54;33.35;;;12.85;;
35245;SDS011;21379;50.962;6.960;2022-09-25T02:46:40;35.38;;;13.32;;
35245;SDS011;21379;50.962;6.960;2022-09-25T02:49:15;28.15;;;12.35;;
35245;SDS011;21379;50.962;6.960;2022-09-25T02:51:51;38.80;;;12.73;;
35245;SDS011;21379;50.962;6.960;2022-09-25T02:54:23;25.83;;;11.57;;
35245;SDS011;21379;50.962;6.960;2022-09-25T02:56:58;29.58;;;12.02;;
35245;SDS011;21379;50.962;6.960;2022-09-25T02:59:32;26.50;;;11.38;;
35245;SDS011;21379;50.962;6.960;2022-09-25T03:02:04;22.98;;;10.68;;
35245;SDS011;21379;50.962;6.960;2022-09-25T03:04:32;23.05;;;10.40;;
35245;SDS011;21379;50.962;6.960;2022-09-25T03:07:01;26.15;;;11.30;;
35245;SDS011;21379;50.962;6.960;2022-09-25T03:09:30;26.88;;;10.65;;
35245;SDS011;21379;50.962;6.960;2022-09-25T03:11:59;24.25;;;9.80;;
35245;SDS011;21379;50.962;6.960;2022-09-25T03:14:28;20.27;;;8.15;;
35245;SDS011;21379;50.962;6.960;2022-09-25T03:16:55;22.15;;;9.48;;
35245;SDS011;21379;50.962;6.960;2022-09-25T03:19:29;15.77;;;7.43;;
35245;SDS011;21379;50.962;6.960;2022-09-25T03:21:57;16.27;;;7.38;;
35245;SDS011;21379;50.962;6.960;2022-09-25T03:24:24;15.65;;;7.25;;
35245;SDS011;21379;50.962;6.960;2022-09-25T03:26:51;16.75;;;8.73;;
35245;SDS011;21379;50.962;6.960;2022-09-25T03:29:19;15.77;;;7.80;;
35245;SDS011;21379;50.962;6.960;2022-09-25T03:31:46;20.92;;;6.57;;
35245;SDS011;21379;50.962;6.960;2022-09-25T03:34:14;19.55;;;7.35;;
35245;SDS011;21379;50.962;6.960;2022-09-25T03:36:44;11.57;;;5.97;;
35245;SDS011;21379;50.962;6.960;2022-09-25T03:39:11;15.95;;;6.72;;
35245;SDS011;21379;50.962;6.960;2022-09-25T03:41:41;15.75;;;6.53;;
35245;SDS011;21379;50.962;6.960;2022-09-25T03:44:08;10.48;;;4.97;;
35245;SDS011;21379;50.962;6.960;2022-09-25T03:46:36;14.75;;;6.20;;
35245;SDS011;21379;50.962;6.960;2022-09-25T03:49:03;16.17;;;5.97;;
35245;SDS011;21379;50.962;6.960;2022-09-25T03:51:30;19.30;;;6.25;;
35245;SDS011;21379;50.962;6.960;2022-09-25T03:53:59;10.95;;;5.38;;
35245;SDS011;21379;50.962;6.960;2022-09-25T03:56:28;9.10;;;5.22;;
35245;SDS011;21379;50.962;6.960;2022-09-25T03:58:55;10.60;;;4.75;;
35245;SDS011;21379;50.962;6.960;2022-09-25T04:01:23;10.40;;;4.90;;
35245;SDS011;21379;50.962;6.960;2022-09-25T04:03:51;13.20;;;4.90;;
35245;SDS011;21379;50.962;6.960;2022-09-25T04:06:19;19.30;;;4.93;;
35245;SDS011;21379;50.962;6.960;2022-09-25T04:08:48;13.15;;;5.15;;
35245;SDS011;21379;50.962;6.960;2022-09-25T04:11:17;9.35;;;3.60;;
35245;SDS011;21379;50.962;6.960;2022-09-25T04:13:44;8.45;;;2.92;;
35245;SDS011;21379;50.962;6.960;2022-09-25T04:16:12;11.85;;;3.63;;
35245;SDS011;21379;50.962;6.960;2022-09-25T04:18:40;9.52;;;3.17;;
35245;SDS011;21379;50.962;6.960;2022-09-25T04:21:07;6.20;;;2.05;;
35245;SDS011;21379;50.962;6.960;2022-09-25T04:23:35;5.43;;;1.75;;
35245;SDS011;21379;50.962;6.960;2022-09-25T04:26:03;4.30;;;1.80;;
35245;SDS011;21379;50.962;6.960;2022-09-25T04:28:31;5.95;;;3.22;;
35245;SDS011;21379;50.962;6.960;2022-09-25T04:30:58;5.65;;;1.95;;
35245;SDS011;21379;50.962;6.960;2022-09-25T04:33:26;6.05;;;2.65;;
35245;SDS011;21379;50.962;6.960;2022-09-25T04:36:10;7.63;;;1.80;;
35245;SDS011;21379;50.962;6.960;2022-09-25T04:38:37;8.93;;;2.13;;
35245;SDS011;21379;50.962;6.960;2022-09-25T04:41:04;14.15;;;3.08;;
35245;SDS011;21379;50.962;6.960;2022-09-25T04:43:33;10.32;;;1.88;;
35245;SDS011;21379;50.962;6.960;2022-09-25T04:46:01;10.00;;;1.90;;
35245;SDS011;21379;50.962;6.960;2022-09-25T04:48:29;8.45;;;2.10;;
35245;SDS011;21379;50.962;6.960;2022-09-25T04:50:55;5.38;;;2.78;;
35245;SDS011;21379;50.962;6.960;2022-09-25T04:53:23;5.63;;;2.28;;
35245;SDS011;21379;50.962;6.960;2022-09-25T04:55:50;4.32;;;1.77;;
35245;SDS011;21379;50.962;6.960;2022-09-25T04:58:18;4.93;;;2.53;;
35245;SDS011;21379;50.962;6.960;2022-09-25T05:00:47;5.22;;;1.65;;
35245;SDS011;21379;50.962;6.960;2022-09-25T05:03:14;6.85;;;1.85;;
35245;SDS011;21379;50.962;6.960;2022-09-25T05:05:41;5.90;;;1.80;;
35245;SDS011;21379;50.962;6.960;2022-09-25T05:08:08;6.43;;;2.35;;
35245;SDS011;21379;50.962;6.960;2022-09-25T05:10:36;4.25;;;1.83;;
35245;SDS011;21379;50.962;6.960;2022-09-25T05:13:05;3.03;;;1.63;;
35245;SDS011;21379;50.962;6.960;2022-09-25T05:15:33;7.00;;;1.60;;
35245;SDS011;21379;50.962;6.960;2022-09-25T05:18:02;5.68;;;1.67;;
35245;SDS011;21379;50.962;6.960;2022-09-25T05:20:31;14.63;;;2.08;;
